sensor_id;sensor_type;location;lat;lon;timestamp;temperature;humidity
51793;DHT22;37850;53.178;6.376;2023-11-19T00:01:31;10.90;99.90
51793;DHT22;37850;53.178;6.376;2023-11-19T00:03:58;10.90;99.90
51793;DHT22;37850;53.178;6.376;2023-11-19T00:06:23;11.30;99.90
51793;DHT22;37850;53.178;6.376;2023-11-19T00:08:51;11.00;99.90
51793;DHT22;37850;53.178;6.376;2023-11-19T00:11:17;11.00;99.90
51793;DHT22;37850;53.178;6.376;2023-11-19T00:13:42;11.00;99.90
51793;DHT22;37850;53.178;6.376;2023-11-19T00:16:08;11.10;99.90
51793;DHT22;37850;53.178;6.376;2023-11-19T00:18:35;11.10;99.90
51793;DHT22;37850;53.178;6.376;2023-11-19T00:21:02;11.20;99.90
51793;DHT22;37850;53.178;6.376;2023-11-19T00:23:28;11.30;99.90
51793;DHT22;37850;53.178;6.376;2023-11-19T00:25:54;11.30;99.90
51793;DHT22;37850;53.178;6.376;2023-11-19T00:28:19;11.30;99.90
51793;DHT22;37850;53.178;6.376;2023-11-19T00:30:45;11.30;99.90
51793;DHT22;37850;53.178;6.376;2023-11-19T00:33:11;11.30;99.90
51793;DHT22;37850;53.178;6.376;2023-11-19T00:35:37;11.40;99.90
51793;DHT22;37850;53.178;6.376;2023-11-19T00:38:03;11.40;99.90
51793;DHT22;37850;53.178;6.376;2023-11-19T00:40:29;11.40;99.90
51793;DHT22;37850;53.178;6.376;2023-11-19T00:42:55;11.40;99.90
51793;DHT22;37850;53.178;6.376;2023-11-19T00:45:24;11.50;99.90
51793;DHT22;37850;53.178;6.376;2023-11-19T00:47:49;11.50;99.90
51793;DHT22;37850;53.178;6.376;2023-11-19T00:50:15;11.50;99.90
51793;DHT22;37850;53.178;6.376;2023-11-19T00:52:41;11.50;99.90
51793;DHT22;37850;53.178;6.376;2023-11-19T00:55:07;11.50;99.90
51793;DHT22;37850;53.178;6.376;2023-11-19T00:57:32;11.60;99.90
51793;DHT22;37850;53.178;6.376;2023-11-19T01:00:01;11.50;99.90
51793;DHT22;37850;53.178;6.376;2023-11-19T01:02:33;11.60;99.90
51793;DHT22;37850;53.178;6.376;2023-11-19T01:05:00;11.60;99.90
51793;DHT22;37850;53.178;6.376;2023-11-19T01:07:26;11.50;99.90
51793;DHT22;37850;53.178;6.376;2023-11-19T01:09:52;11.60;99.90
51793;DHT22;37850;53.178;6.376;2023-11-19T01:12:19;11.60;99.90
51793;DHT22;37850;53.178;6.376;2023-11-19T01:14:45;11.60;99.90
51793;DHT22;37850;53.178;6.376;2023-11-19T01:17:10;11.60;99.90
51793;DHT22;37850;53.178;6.376;2023-11-19T01:19:36;11.60;99.90
51793;DHT22;37850;53.178;6.376;2023-11-19T01:22:02;11.60;99.90
51793;DHT22;37850;53.178;6.376;2023-11-19T01:24:27;11.60;99.90
51793;DHT22;37850;53.178;6.376;2023-11-19T01:26:54;11.60;99.90
51793;DHT22;37850;53.178;6.376;2023-11-19T01:29:19;11.70;99.90
51793;DHT22;37850;53.178;6.376;2023-11-19T01:31:48;11.60;99.90
51793;DHT22;37850;53.178;6.376;2023-11-19T01:34:14;11.70;99.90
51793;DHT22;37850;53.178;6.376;2023-11-19T01:36:39;11.70;99.90
51793;DHT22;37850;53.178;6.376;2023-11-19T01:39:05;11.70;99.90
51793;DHT22;37850;53.178;6.376;2023-11-19T01:41:37;11.70;99.90
51793;DHT22;37850;53.178;6.376;2023-11-19T01:44:06;11.70;99.90
51793;DHT22;37850;53.178;6.376;2023-11-19T01:46:32;11.70;99.90
51793;DHT22;37850;53.178;6.376;2023-11-19T01:48:59;11.60;99.90
51793;DHT22;37850;53.178;6.376;2023-11-19T01:51:25;11.70;99.90
51793;DHT22;37850;53.178;6.376;2023-11-19T01:53:52;11.70;99.90
51793;DHT22;37850;53.178;6.376;2023-11-19T01:56:18;11.70;99.90
51793;DHT22;37850;53.178;6.376;2023-11-19T01:58:45;11.50;99.90
51793;DHT22;37850;53.178;6.376;2023-11-19T02:01:13;11.60;99.90
51793;DHT22;37850;53.178;6.376;2023-11-19T02:03:38;11.60;99.90
51793;DHT22;37850;53.178;6.376;2023-11-19T02:06:05;11.70;99.90
51793;DHT22;37850;53.178;6.376;2023-11-19T02:08:31;11.60;99.90
51793;DHT22;37850;53.178;6.376;2023-11-19T02:10:56;11.60;99.90
51793;DHT22;37850;53.178;6.376;2023-11-19T02:13:26;11.60;99.90
51793;DHT22;37850;53.178;6.376;2023-11-19T02:15:52;11.60;99.90
51793;DHT22;37850;53.178;6.376;2023-11-19T02:18:22;11.60;99.90
51793;DHT22;37850;53.178;6.376;2023-11-19T02:20:51;11.60;99.90
51793;DHT22;37850;53.178;6.376;2023-11-19T02:23:18;11.60;99.90
51793;DHT22;37850;53.178;6.376;2023-11-19T02:28:39;11.50;99.90
51793;DHT22;37850;53.178;6.376;2023-11-19T02:31:07;11.50;99.90
51793;DHT22;37850;53.178;6.376;2023-11-19T02:33:36;11.50;99.90
51793;DHT22;37850;53.178;6.376;2023-11-19T02:36:03;11.50;99.90
51793;DHT22;37850;53.178;6.376;2023-11-19T02:38:29;11.50;99.90
51793;DHT22;37850;53.178;6.376;2023-11-19T02:40:56;11.50;99.90
51793;DHT22;37850;53.178;6.376;2023-11-19T02:43:22;11.50;99.90
51793;DHT22;37850;53.178;6.376;2023-11-19T02:45:48;11.50;99.90
51793;DHT22;37850;53.178;6.376;2023-11-19T02:48:14;11.50;99.90
51793;DHT22;37850;53.178;6.376;2023-11-19T02:50:42;11.50;99.90
51793;DHT22;37850;53.178;6.376;2023-11-19T02:53:08;11.40;99.90
51793;DHT22;37850;53.178;6.376;2023-11-19T02:55:34;11.50;99.90
51793;DHT22;37850;53.178;6.376;2023-11-19T02:58:04;11.50;99.90
51793;DHT22;37850;53.178;6.376;2023-11-19T03:00:45;11.50;99.90
51793;DHT22;37850;53.178;6.376;2023-11-19T03:03:19;11.50;99.90
51793;DHT22;37850;53.178;6.376;2023-11-19T03:05:51;11.50;99.90
51793;DHT22;37850;53.178;6.376;2023-11-19T03:08:17;11.50;99.90
51793;DHT22;37850;53.178;6.376;2023-11-19T03:10:43;11.40;99.90
51793;DHT22;37850;53.178;6.376;2023-11-19T03:13:12;11.40;99.90
51793;DHT22;37850;53.178;6.376;2023-11-19T03:15:43;11.50;99.90
51793;DHT22;37850;53.178;6.376;2023-11-19T03:18:08;11.30;99.90
51793;DHT22;37850;53.178;6.376;2023-11-19T03:20:34;11.40;99.90
51793;DHT22;37850;53.178;6.376;2023-11-19T03:23:00;11.40;99.90
51793;DHT22;37850;53.178;6.376;2023-11-19T03:25:27;11.40;99.90
51793;DHT22;37850;53.178;6.376;2023-11-19T03:27:59;11.40;99.90
51793;DHT22;37850;53.178;6.376;2023-11-19T03:30:26;11.40;99.90
51793;DHT22;37850;53.178;6.376;2023-11-19T03:32:57;11.40;99.90
51793;DHT22;37850;53.178;6.376;2023-11-19T03:35:23;11.40;99.90
51793;DHT22;37850;53.178;6.376;2023-11-19T03:37:50;11.50;99.90
51793;DHT22;37850;53.178;6.376;2023-11-19T03:40:19;11.40;99.90
51793;DHT22;37850;53.178;6.376;2023-11-19T03:42:45;11.40;99.90
51793;DHT22;37850;53.178;6.376;2023-11-19T03:45:11;11.40;99.90
51793;DHT22;37850;53.178;6.376;2023-11-19T03:47:37;11.40;99.90
51793;DHT22;37850;53.178;6.376;2023-11-19T03:50:04;11.40;99.90
51793;DHT22;37850;53.178;6.376;2023-11-19T03:52:30;11.40;99.90
51793;DHT22;37850;53.178;6.376;2023-11-19T03:54:56;11.40;99.90
51793;DHT22;37850;53.178;6.376;2023-11-19T03:57:23;11.40;99.90
51793;DHT22;37850;53.178;6.376;2023-11-19T03:59:49;11.40;99.90
51793;DHT22;37850;53.178;6.376;2023-11-19T04:02:15;11.40;99.90
51793;DHT22;37850;53.178;6.376;2023-11-19T04:04:41;11.40;99.90
51793;DHT22;37850;53.178;6.376;2023-11-19T04:07:07;11.40;99.90
51793;DHT22;37850;53.178;6.376;2023-11-19T04:09:33;11.40;99.90
51793;DHT22;37850;53.178;6.376;2023-11-19T04:11:59;11.40;99.90
51793;DHT22;37850;53.178;6.376;2023-11-19T04:14:26;11.40;99.90
51793;DHT22;37850;53.178;6.376;2023-11-19T04:16:52;11.40;99.90
51793;DHT22;37850;53.178;6.376;2023-11-19T04:19:19;11.40;99.90
51793;DHT22;37850;53.178;6.376;2023-11-19T04:21:45;11.40;99.90
51793;DHT22;37850;53.178;6.376;2023-11-19T04:24:13;11.40;99.90
51793;DHT22;37850;53.178;6.376;2023-11-19T04:26:43;11.40;99.90
51793;DHT22;37850;53.178;6.376;2023-11-19T04:29:14;11.40;99.90
51793;DHT22;37850;53.178;6.376;2023-11-19T04:31:41;11.40;99.90
51793;DHT22;37850;53.178;6.376;2023-11-19T04:34:07;11.40;99.90
51793;DHT22;37850;53.178;6.376;2023-11-19T04:36:33;11.40;99.90
51793;DHT22;37850;53.178;6.376;2023-11-19T04:39:00;11.40;99.90
51793;DHT22;37850;53.178;6.376;2023-11-19T04:41:26;11.40;99.90
51793;DHT22;37850;53.178;6.376;2023-11-19T04:43:55;11.40;99.90
51793;DHT22;37850;53.178;6.376;2023-11-19T04:46:21;11.40;99.90
51793;DHT22;37850;53.178;6.376;2023-11-19T04:48:47;11.40;99.90
51793;DHT22;37850;53.178;6.376;2023-11-19T04:51:13;11.40;99.90
51793;DHT22;37850;53.178;6.376;2023-11-19T04:53:38;11.40;99.90
51793;DHT22;37850;53.178;6.376;2023-11-19T04:56:08;11.40;99.90
51793;DHT22;37850;53.178;6.376;2023-11-19T04:58:34;11.40;99.90
51793;DHT22;37850;53.178;6.376;2023-11-19T05:01:03;11.40;99.90
51793;DHT22;37850;53.178;6.376;2023-11-19T05:03:33;11.40;99.90
51793;DHT22;37850;53.178;6.376;2023-11-19T05:05:58;11.40;99.90
51793;DHT22;37850;53.178;6.376;2023-11-19T05:08:24;11.40;99.90
51793;DHT22;37850;53.178;6.376;2023-11-19T05:10:53;11.40;99.90
51793;DHT22;37850;53.178;6.376;2023-11-19T05:13:19;11.40;99.90
51793;DHT22;37850;53.178;6.376;2023-11-19T05:15:45;11.40;99.90
51793;DHT22;37850;53.178;6.376;2023-11-19T05:18:10;11.40;99.90
51793;DHT22;37850;53.178;6.376;2023-11-19T05:20:36;11.40;99.90
51793;DHT22;37850;53.178;6.376;2023-11-19T05:23:02;11.40;99.90
51793;DHT22;37850;53.178;6.376;2023-11-19T05:25:27;11.40;99.90
51793;DHT22;37850;53.178;6.376;2023-11-19T05:27:53;11.40;99.90
51793;DHT22;37850;53.178;6.376;2023-11-19T05:30:19;11.40;99.90
51793;DHT22;37850;53.178;6.376;2023-11-19T05:32:45;11.40;99.90
51793;DHT22;37850;53.178;6.376;2023-11-19T05:35:11;11.40;99.90
51793;DHT22;37850;53.178;6.376;2023-11-19T05:37:37;11.40;99.90
51793;DHT22;37850;53.178;6.376;2023-11-19T05:40:03;11.70;99.90
51793;DHT22;37850;53.178;6.376;2023-11-19T05:42:32;11.40;99.90
51793;DHT22;37850;53.178;6.376;2023-11-19T05:44:58;11.40;99.90
51793;DHT22;37850;53.178;6.376;2023-11-19T05:47:23;11.30;99.90
51793;DHT22;37850;53.178;6.376;2023-11-19T05:49:49;11.60;99.90
51793;DHT22;37850;53.178;6.376;2023-11-19T05:52:15;11.40;99.90
51793;DHT22;37850;53.178;6.376;2023-11-19T05:54:41;11.30;99.90
51793;DHT22;37850;53.178;6.376;2023-11-19T05:57:07;11.30;99.90
51793;DHT22;37850;53.178;6.376;2023-11-19T05:59:36;11.30;99.90
51793;DHT22;37850;53.178;6.376;2023-11-19T06:02:02;11.30;99.90
51793;DHT22;37850;53.178;6.376;2023-11-19T06:04:28;11.30;99.90
51793;DHT22;37850;53.178;6.376;2023-11-19T06:06:54;11.20;99.90
51793;DHT22;37850;53.178;6.376;2023-11-19T06:09:23;11.30;99.90
51793;DHT22;37850;53.178;6.376;2023-11-19T06:11:51;11.30;99.90
51793;DHT22;37850;53.178;6.376;2023-11-19T06:14:18;11.20;99.90
51793;DHT22;37850;53.178;6.376;2023-11-19T06:16:44;11.20;99.90
51793;DHT22;37850;53.178;6.376;2023-11-19T06:19:10;11.20;99.90
51793;DHT22;37850;53.178;6.376;2023-11-19T06:21:37;11.20;99.90
51793;DHT22;37850;53.178;6.376;2023-11-19T06:24:03;11.20;99.90
51793;DHT22;37850;53.178;6.376;2023-11-19T06:26:29;11.20;99.90
51793;DHT22;37850;53.178;6.376;2023-11-19T06:28:54;11.20;99.90
51793;DHT22;37850;53.178;6.376;2023-11-19T06:31:23;11.10;99.90
51793;DHT22;37850;53.178;6.376;2023-11-19T06:33:49;11.20;99.90
51793;DHT22;37850;53.178;6.376;2023-11-19T06:36:14;11.10;99.90
51793;DHT22;37850;53.178;6.376;2023-11-19T06:38:42;11.10;99.90
51793;DHT22;37850;53.178;6.376;2023-11-19T06:41:08;11.10;99.90
51793;DHT22;37850;53.178;6.376;2023-11-19T06:43:37;11.10;99.90
51793;DHT22;37850;53.178;6.376;2023-11-19T06:46:03;11.10;99.90
51793;DHT22;37850;53.178;6.376;2023-11-19T06:48:34;11.10;99.90
51793;DHT22;37850;53.178;6.376;2023-11-19T06:51:00;11.10;99.90
51793;DHT22;37850;53.178;6.376;2023-11-19T06:53:26;11.10;99.90
51793;DHT22;37850;53.178;6.376;2023-11-19T06:55:54;11.00;99.90
51793;DHT22;37850;53.178;6.376;2023-11-19T06:58:20;11.00;99.90
51793;DHT22;37850;53.178;6.376;2023-11-19T07:00:46;11.00;99.90
51793;DHT22;37850;53.178;6.376;2023-11-19T07:03:12;11.10;99.90
51793;DHT22;37850;53.178;6.376;2023-11-19T07:05:38;11.10;99.90
51793;DHT22;37850;53.178;6.376;2023-11-19T07:08:06;11.00;99.90
51793;DHT22;37850;53.178;6.376;2023-11-19T07:10:33;11.00;99.90
51793;DHT22;37850;53.178;6.376;2023-11-19T07:12:59;11.00;99.90
51793;DHT22;37850;53.178;6.376;2023-11-19T07:15:25;11.00;99.90
51793;DHT22;37850;53.178;6.376;2023-11-19T07:17:51;10.90;99.90
51793;DHT22;37850;53.178;6.376;2023-11-19T07:20:17;10.90;99.90
51793;DHT22;37850;53.178;6.376;2023-11-19T07:22:44;10.70;99.90
51793;DHT22;37850;53.178;6.376;2023-11-19T07:25:14;10.90;99.90
51793;DHT22;37850;53.178;6.376;2023-11-19T07:27:40;10.90;99.90
51793;DHT22;37850;53.178;6.376;2023-11-19T07:30:06;10.90;99.90
51793;DHT22;37850;53.178;6.376;2023-11-19T07:32:35;10.90;99.90
51793;DHT22;37850;53.178;6.376;2023-11-19T07:35:01;10.90;99.90
51793;DHT22;37850;53.178;6.376;2023-11-19T07:37:26;10.90;99.90
51793;DHT22;37850;53.178;6.376;2023-11-19T07:39:52;10.90;99.90
51793;DHT22;37850;53.178;6.376;2023-11-19T07:42:18;10.90;99.90
51793;DHT22;37850;53.178;6.376;2023-11-19T07:44:44;10.90;99.90
51793;DHT22;37850;53.178;6.376;2023-11-19T07:47:10;10.90;99.90
51793;DHT22;37850;53.178;6.376;2023-11-19T07:49:36;10.90;99.90
51793;DHT22;37850;53.178;6.376;2023-11-19T07:52:01;10.90;99.90
51793;DHT22;37850;53.178;6.376;2023-11-19T07:54:28;10.90;99.90
51793;DHT22;37850;53.178;6.376;2023-11-19T07:56:54;10.90;99.90
51793;DHT22;37850;53.178;6.376;2023-11-19T07:59:21;10.90;99.90
51793;DHT22;37850;53.178;6.376;2023-11-19T08:01:46;11.00;99.90
51793;DHT22;37850;53.178;6.376;2023-11-19T08:04:13;10.90;99.90
51793;DHT22;37850;53.178;6.376;2023-11-19T08:06:39;10.90;99.90
51793;DHT22;37850;53.178;6.376;2023-11-19T08:09:05;10.90;99.90
51793;DHT22;37850;53.178;6.376;2023-11-19T08:11:32;10.90;99.90
51793;DHT22;37850;53.178;6.376;2023-11-19T08:13:59;10.90;99.90
51793;DHT22;37850;53.178;6.376;2023-11-19T08:16:24;10.90;99.90
51793;DHT22;37850;53.178;6.376;2023-11-19T08:18:50;10.90;99.90
51793;DHT22;37850;53.178;6.376;2023-11-19T08:21:19;11.00;99.90
51793;DHT22;37850;53.178;6.376;2023-11-19T08:23:46;10.90;99.90
51793;DHT22;37850;53.178;6.376;2023-11-19T08:26:11;11.00;99.90
51793;DHT22;37850;53.178;6.376;2023-11-19T08:28:37;11.00;99.90
51793;DHT22;37850;53.178;6.376;2023-11-19T08:31:04;11.00;99.90
51793;DHT22;37850;53.178;6.376;2023-11-19T08:33:30;11.00;99.90
51793;DHT22;37850;53.178;6.376;2023-11-19T08:35:56;11.00;99.90
51793;DHT22;37850;53.178;6.376;2023-11-19T08:38:22;11.00;99.90
51793;DHT22;37850;53.178;6.376;2023-11-19T08:40:48;11.10;99.90
51793;DHT22;37850;53.178;6.376;2023-11-19T08:43:14;11.00;99.90
51793;DHT22;37850;53.178;6.376;2023-11-19T08:45:39;11.30;99.90
51793;DHT22;37850;53.178;6.376;2023-11-19T08:48:05;11.00;99.90
51793;DHT22;37850;53.178;6.376;2023-11-19T08:50:31;11.00;99.90
51793;DHT22;37850;53.178;6.376;2023-11-19T08:52:57;11.00;99.90
51793;DHT22;37850;53.178;6.376;2023-11-19T08:55:22;11.00;99.90
51793;DHT22;37850;53.178;6.376;2023-11-19T08:57:48;11.00;99.90
51793;DHT22;37850;53.178;6.376;2023-11-19T09:00:14;11.00;99.90
51793;DHT22;37850;53.178;6.376;2023-11-19T09:02:40;11.10;99.90
51793;DHT22;37850;53.178;6.376;2023-11-19T09:05:06;11.00;99.90
51793;DHT22;37850;53.178;6.376;2023-11-19T09:07:34;11.10;99.90
51793;DHT22;37850;53.178;6.376;2023-11-19T09:10:00;11.10;99.90
51793;DHT22;37850;53.178;6.376;2023-11-19T09:12:27;11.10;99.90
51793;DHT22;37850;53.178;6.376;2023-11-19T09:14:52;11.20;99.90
51793;DHT22;37850;53.178;6.376;2023-11-19T09:17:18;11.20;99.90
51793;DHT22;37850;53.178;6.376;2023-11-19T09:19:44;11.30;99.90
51793;DHT22;37850;53.178;6.376;2023-11-19T09:22:10;11.20;99.90
51793;DHT22;37850;53.178;6.376;2023-11-19T09:24:35;11.50;99.90
51793;DHT22;37850;53.178;6.376;2023-11-19T09:27:01;11.20;99.90
51793;DHT22;37850;53.178;6.376;2023-11-19T09:29:27;11.20;99.90
51793;DHT22;37850;53.178;6.376;2023-11-19T09:31:53;11.20;99.90
51793;DHT22;37850;53.178;6.376;2023-11-19T09:34:18;11.20;99.90
51793;DHT22;37850;53.178;6.376;2023-11-19T09:36:44;11.20;99.90
51793;DHT22;37850;53.178;6.376;2023-11-19T09:39:13;11.30;99.90
51793;DHT22;37850;53.178;6.376;2023-11-19T09:41:40;11.30;99.90
51793;DHT22;37850;53.178;6.376;2023-11-19T09:44:08;11.30;99.90
51793;DHT22;37850;53.178;6.376;2023-11-19T09:46:35;11.30;99.90
51793;DHT22;37850;53.178;6.376;2023-11-19T09:49:03;11.30;99.90
51793;DHT22;37850;53.178;6.376;2023-11-19T09:51:30;11.30;99.90
51793;DHT22;37850;53.178;6.376;2023-11-19T09:53:56;11.40;99.90
51793;DHT22;37850;53.178;6.376;2023-11-19T09:56:22;11.40;99.90
51793;DHT22;37850;53.178;6.376;2023-11-19T09:58:48;11.40;99.90
51793;DHT22;37850;53.178;6.376;2023-11-19T10:01:14;11.40;99.90
51793;DHT22;37850;53.178;6.376;2023-11-19T10:03:41;11.40;99.90
51793;DHT22;37850;53.178;6.376;2023-11-19T10:06:10;11.40;99.90
51793;DHT22;37850;53.178;6.376;2023-11-19T10:08:39;11.40;99.90
51793;DHT22;37850;53.178;6.376;2023-11-19T10:11:09;11.50;99.90
51793;DHT22;37850;53.178;6.376;2023-11-19T10:13:37;11.50;99.90
51793;DHT22;37850;53.178;6.376;2023-11-19T10:16:09;11.50;99.90
51793;DHT22;37850;53.178;6.376;2023-11-19T10:18:37;11.50;99.90
51793;DHT22;37850;53.178;6.376;2023-11-19T10:21:07;11.50;99.90
51793;DHT22;37850;53.178;6.376;2023-11-19T10:23:53;11.50;99.90
51793;DHT22;37850;53.178;6.376;2023-11-19T10:26:22;11.50;99.90
51793;DHT22;37850;53.178;6.376;2023-11-19T10:28:48;11.50;99.90
51793;DHT22;37850;53.178;6.376;2023-11-19T10:31:15;11.50;99.90
51793;DHT22;37850;53.178;6.376;2023-11-19T10:33:42;11.50;99.90
51793;DHT22;37850;53.178;6.376;2023-11-19T10:36:11;11.50;99.90
51793;DHT22;37850;53.178;6.376;2023-11-19T10:38:40;11.50;99.90
51793;DHT22;37850;53.178;6.376;2023-11-19T10:41:06;11.50;99.90
51793;DHT22;37850;53.178;6.376;2023-11-19T10:43:43;11.50;99.90
51793;DHT22;37850;53.178;6.376;2023-11-19T10:46:11;11.50;99.90
51793;DHT22;37850;53.178;6.376;2023-11-19T10:48:38;11.50;99.90
51793;DHT22;37850;53.178;6.376;2023-11-19T10:51:06;11.50;99.90
51793;DHT22;37850;53.178;6.376;2023-11-19T10:53:38;11.60;99.90
51793;DHT22;37850;53.178;6.376;2023-11-19T10:56:09;11.50;99.90
51793;DHT22;37850;53.178;6.376;2023-11-19T10:58:36;11.60;99.90
51793;DHT22;37850;53.178;6.376;2023-11-19T11:01:11;11.60;99.90
51793;DHT22;37850;53.178;6.376;2023-11-19T11:03:42;11.60;99.90
51793;DHT22;37850;53.178;6.376;2023-11-19T11:06:13;11.70;99.90
51793;DHT22;37850;53.178;6.376;2023-11-19T11:08:39;11.60;99.90
51793;DHT22;37850;53.178;6.376;2023-11-19T11:11:06;11.60;99.90
51793;DHT22;37850;53.178;6.376;2023-11-19T11:13:34;11.70;99.90
51793;DHT22;37850;53.178;6.376;2023-11-19T11:16:01;11.70;99.90
51793;DHT22;37850;53.178;6.376;2023-11-19T11:18:29;11.70;99.90
51793;DHT22;37850;53.178;6.376;2023-11-19T11:21:17;11.70;99.90
51793;DHT22;37850;53.178;6.376;2023-11-19T11:38:06;11.70;99.90
51793;DHT22;37850;53.178;6.376;2023-11-19T11:40:32;11.80;99.90
51793;DHT22;37850;53.178;6.376;2023-11-19T11:42:58;11.80;99.90
51793;DHT22;37850;53.178;6.376;2023-11-19T11:45:38;11.80;99.90
51793;DHT22;37850;53.178;6.376;2023-11-19T11:48:17;11.80;99.90
51793;DHT22;37850;53.178;6.376;2023-11-19T11:50:54;11.80;99.90
51793;DHT22;37850;53.178;6.376;2023-11-19T11:53:21;11.90;99.90
51793;DHT22;37850;53.178;6.376;2023-11-19T11:58:28;11.90;99.90
51793;DHT22;37850;53.178;6.376;2023-11-19T12:00:58;11.90;99.90
51793;DHT22;37850;53.178;6.376;2023-11-19T12:03:28;11.90;99.90
51793;DHT22;37850;53.178;6.376;2023-11-19T12:05:55;11.90;99.90
51793;DHT22;37850;53.178;6.376;2023-11-19T12:08:26;11.80;99.90
51793;DHT22;37850;53.178;6.376;2023-11-19T12:10:56;11.80;99.90
51793;DHT22;37850;53.178;6.376;2023-11-19T12:14:15;11.90;99.90
51793;DHT22;37850;53.178;6.376;2023-11-19T12:16:18;11.90;99.90
51793;DHT22;37850;53.178;6.376;2023-11-19T12:18:44;11.80;99.90
51793;DHT22;37850;53.178;6.376;2023-11-19T12:21:10;11.90;99.90
51793;DHT22;37850;53.178;6.376;2023-11-19T12:23:44;11.90;99.90
51793;DHT22;37850;53.178;6.376;2023-11-19T12:26:22;11.90;99.90
51793;DHT22;37850;53.178;6.376;2023-11-19T12:29:00;12.00;99.90
51793;DHT22;37850;53.178;6.376;2023-11-19T12:31:26;12.00;99.90
51793;DHT22;37850;53.178;6.376;2023-11-19T12:33:52;12.00;99.90
51793;DHT22;37850;53.178;6.376;2023-11-19T12:36:19;12.00;99.90
51793;DHT22;37850;53.178;6.376;2023-11-19T12:38:46;12.10;99.90
51793;DHT22;37850;53.178;6.376;2023-11-19T12:41:11;12.10;99.90
51793;DHT22;37850;53.178;6.376;2023-11-19T12:43:39;12.10;99.90
51793;DHT22;37850;53.178;6.376;2023-11-19T12:46:18;12.30;99.90
51793;DHT22;37850;53.178;6.376;2023-11-19T12:48:46;12.10;99.90
51793;DHT22;37850;53.178;6.376;2023-11-19T12:51:12;12.10;99.90
51793;DHT22;37850;53.178;6.376;2023-11-19T12:54:08;12.10;99.90
51793;DHT22;37850;53.178;6.376;2023-11-19T12:56:34;12.10;99.90
51793;DHT22;37850;53.178;6.376;2023-11-19T12:59:10;12.10;99.90
51793;DHT22;37850;53.178;6.376;2023-11-19T13:01:37;12.10;99.90
51793;DHT22;37850;53.178;6.376;2023-11-19T13:04:18;12.10;99.90
51793;DHT22;37850;53.178;6.376;2023-11-19T13:06:45;12.10;99.90
51793;DHT22;37850;53.178;6.376;2023-11-19T13:09:31;12.10;99.90
51793;DHT22;37850;53.178;6.376;2023-11-19T13:11:57;12.10;99.90
51793;DHT22;37850;53.178;6.376;2023-11-19T13:14:23;12.10;99.90
51793;DHT22;37850;53.178;6.376;2023-11-19T13:17:02;12.10;99.90
51793;DHT22;37850;53.178;6.376;2023-11-19T13:19:28;12.10;99.90
51793;DHT22;37850;53.178;6.376;2023-11-19T13:21:53;12.40;99.90
51793;DHT22;37850;53.178;6.376;2023-11-19T13:24:19;12.10;99.90
51793;DHT22;37850;53.178;6.376;2023-11-19T13:26:45;12.00;99.90
51793;DHT22;37850;53.178;6.376;2023-11-19T13:29:11;12.00;99.90
51793;DHT22;37850;53.178;6.376;2023-11-19T13:31:37;12.10;99.90
51793;DHT22;37850;53.178;6.376;2023-11-19T13:34:04;12.00;99.90
51793;DHT22;37850;53.178;6.376;2023-11-19T13:36:32;12.00;99.90
51793;DHT22;37850;53.178;6.376;2023-11-19T13:38:58;12.00;99.90
51793;DHT22;37850;53.178;6.376;2023-11-19T13:41:27;12.00;99.90
51793;DHT22;37850;53.178;6.376;2023-11-19T13:43:53;12.00;99.90
51793;DHT22;37850;53.178;6.376;2023-11-19T13:46:21;12.00;99.90
51793;DHT22;37850;53.178;6.376;2023-11-19T13:48:48;12.00;99.90
51793;DHT22;37850;53.178;6.376;2023-11-19T13:51:15;12.00;99.90
51793;DHT22;37850;53.178;6.376;2023-11-19T13:53:41;12.00;99.90
51793;DHT22;37850;53.178;6.376;2023-11-19T13:56:07;12.00;99.90
51793;DHT22;37850;53.178;6.376;2023-11-19T13:58:33;12.00;99.90
51793;DHT22;37850;53.178;6.376;2023-11-19T14:00:59;12.00;99.90
51793;DHT22;37850;53.178;6.376;2023-11-19T14:03:25;11.90;99.90
51793;DHT22;37850;53.178;6.376;2023-11-19T14:05:51;11.90;99.90
51793;DHT22;37850;53.178;6.376;2023-11-19T14:08:17;12.00;99.90
51793;DHT22;37850;53.178;6.376;2023-11-19T14:10:43;11.90;99.90
51793;DHT22;37850;53.178;6.376;2023-11-19T14:13:09;11.90;99.90
51793;DHT22;37850;53.178;6.376;2023-11-19T14:15:35;11.90;99.90
51793;DHT22;37850;53.178;6.376;2023-11-19T14:18:01;11.90;99.90
51793;DHT22;37850;53.178;6.376;2023-11-19T14:20:28;11.90;99.90
51793;DHT22;37850;53.178;6.376;2023-11-19T14:22:54;11.90;99.90
51793;DHT22;37850;53.178;6.376;2023-11-19T14:25:20;11.90;99.90
51793;DHT22;37850;53.178;6.376;2023-11-19T14:27:47;11.90;99.90
51793;DHT22;37850;53.178;6.376;2023-11-19T14:30:13;11.90;99.90
51793;DHT22;37850;53.178;6.376;2023-11-19T14:32:40;11.90;99.90
51793;DHT22;37850;53.178;6.376;2023-11-19T14:35:08;11.90;99.90
51793;DHT22;37850;53.178;6.376;2023-11-19T14:37:34;11.90;99.90
51793;DHT22;37850;53.178;6.376;2023-11-19T14:39:59;11.80;99.90
51793;DHT22;37850;53.178;6.376;2023-11-19T14:42:26;11.90;99.90
51793;DHT22;37850;53.178;6.376;2023-11-19T14:44:55;11.90;99.90
51793;DHT22;37850;53.178;6.376;2023-11-19T14:47:21;11.80;99.90
51793;DHT22;37850;53.178;6.376;2023-11-19T14:49:47;11.80;99.90
51793;DHT22;37850;53.178;6.376;2023-11-19T14:52:13;11.80;99.90
51793;DHT22;37850;53.178;6.376;2023-11-19T14:54:39;11.90;99.90
51793;DHT22;37850;53.178;6.376;2023-11-19T14:57:05;11.80;99.90
51793;DHT22;37850;53.178;6.376;2023-11-19T14:59:33;11.70;99.90
51793;DHT22;37850;53.178;6.376;2023-11-19T15:01:59;11.70;99.90
51793;DHT22;37850;53.178;6.376;2023-11-19T15:04:26;11.70;99.90
51793;DHT22;37850;53.178;6.376;2023-11-19T15:06:52;11.70;99.90
51793;DHT22;37850;53.178;6.376;2023-11-19T15:09:19;11.70;99.90
51793;DHT22;37850;53.178;6.376;2023-11-19T15:11:47;11.60;99.90
51793;DHT22;37850;53.178;6.376;2023-11-19T15:14:16;11.60;99.90
51793;DHT22;37850;53.178;6.376;2023-11-19T15:16:44;11.60;99.90
51793;DHT22;37850;53.178;6.376;2023-11-19T15:19:10;11.70;99.90
51793;DHT22;37850;53.178;6.376;2023-11-19T15:21:38;11.60;99.90
51793;DHT22;37850;53.178;6.376;2023-11-19T15:24:04;11.60;99.90
51793;DHT22;37850;53.178;6.376;2023-11-19T15:26:36;11.60;99.90
51793;DHT22;37850;53.178;6.376;2023-11-19T15:29:02;11.60;99.90
51793;DHT22;37850;53.178;6.376;2023-11-19T15:31:29;11.60;99.90
51793;DHT22;37850;53.178;6.376;2023-11-19T15:33:55;11.60;99.90
51793;DHT22;37850;53.178;6.376;2023-11-19T15:36:21;11.60;99.90
51793;DHT22;37850;53.178;6.376;2023-11-19T15:38:47;11.60;99.90
51793;DHT22;37850;53.178;6.376;2023-11-19T15:41:12;11.60;99.90
51793;DHT22;37850;53.178;6.376;2023-11-19T15:43:38;11.70;99.90
51793;DHT22;37850;53.178;6.376;2023-11-19T15:46:08;11.60;99.90
51793;DHT22;37850;53.178;6.376;2023-11-19T15:48:35;11.60;99.90
51793;DHT22;37850;53.178;6.376;2023-11-19T15:51:01;11.60;99.90